Invercargill, New Zealand
Current Conditions -  °F | °C
As of 11:30 PM on Thursday 23 Oct 2014 (Local Time) from NZCH Reporting Station
Clear Clear  
Wind Chill: 50°   Ceiling: Unl
Heat Index: 50°   Visibility: 6mi
Dew Point: 41°   Wind: 22mph
Humidity: 71%   Direction: 180°S
Pressure: 29.74"   Gusts: NA
Location:  46.41°S, 168.36°E
Report Text: NZCH 231130Z AUTO 18019KT 9999 NCD 10/05 Q1007 NOSIG
Loading
Personal Weather Stations






























Interactive Weather Map
Tropical Storm Tracking
New forecast layout! Learn more

10-Day Weather Forecast

Advertisements
Track Severe Weather on mobile